createdAt,value
2022-08-01T00:00:39.568Z,2.97
2022-08-01T00:03:07.049Z,3.03
2022-08-01T00:05:34.484Z,2.90
2022-08-01T00:08:01.983Z,2.83
2022-08-01T00:10:29.453Z,3.10
2022-08-01T00:12:56.832Z,2.87
2022-08-01T00:15:24.342Z,2.70
2022-08-01T00:17:51.685Z,3.00
2022-08-01T00:20:19.098Z,2.80
2022-08-01T00:22:46.509Z,3.40
2022-08-01T00:25:13.886Z,3.40
2022-08-01T00:27:41.379Z,3.03
2022-08-01T00:30:13.550Z,3.07
2022-08-01T00:32:42.557Z,3.30
2022-08-01T00:35:10.092Z,3.60
2022-08-01T00:37:37.509Z,3.40
2022-08-01T00:40:05.370Z,3.87
2022-08-01T00:42:33.020Z,3.60
2022-08-01T00:45:00.417Z,3.23
2022-08-01T00:47:27.413Z,3.17
2022-08-01T00:49:54.512Z,3.30
2022-08-01T00:52:21.645Z,3.57
2022-08-01T00:54:49.483Z,3.17
2022-08-01T00:57:16.559Z,3.40
2022-08-01T01:00:05.299Z,3.57
2022-08-01T01:02:33.724Z,3.20
2022-08-01T01:05:00.792Z,3.10
2022-08-01T01:07:50.079Z,3.17
2022-08-01T01:10:29.825Z,3.27
2022-08-01T01:13:12.092Z,3.10
2022-08-01T01:15:48.367Z,3.33
2022-08-01T01:18:38.908Z,3.20
2022-08-01T01:21:33.696Z,3.00
2022-08-01T01:24:29.154Z,2.60
2022-08-01T01:27:11.634Z,3.13
2022-08-01T01:29:59.593Z,2.93
2022-08-01T01:32:40.660Z,3.17
2022-08-01T01:35:11.916Z,2.90
2022-08-01T01:37:40.755Z,2.80
2022-08-01T01:40:10.636Z,3.00
2022-08-01T01:42:38.295Z,2.70
2022-08-01T01:45:07.429Z,3.40
2022-08-01T01:47:35.365Z,3.43
2022-08-01T01:50:05.022Z,3.30
2022-08-01T01:52:33.041Z,3.07
2022-08-01T01:55:03.401Z,3.30
2022-08-01T01:57:32.190Z,2.90
2022-08-01T02:00:00.696Z,3.47
2022-08-01T02:02:29.170Z,3.07
2022-08-01T02:04:59.180Z,2.87
2022-08-01T02:07:28.985Z,3.20
2022-08-01T02:09:57.022Z,3.00
2022-08-01T02:12:25.879Z,3.40
2022-08-01T02:14:55.557Z,3.70
2022-08-01T02:17:25.007Z,3.30
2022-08-01T02:19:52.258Z,3.73
2022-08-01T02:22:34.757Z,3.70
2022-08-01T02:25:26.120Z,3.37
2022-08-01T02:28:14.490Z,2.90
2022-08-01T02:30:48.222Z,3.40
2022-08-01T02:33:24.750Z,3.27
2022-08-01T02:36:30.027Z,3.73
2022-08-01T02:38:45.589Z,3.57
2022-08-01T02:41:23.058Z,3.50
2022-08-01T02:43:57.985Z,3.73
2022-08-01T02:46:51.263Z,3.30
2022-08-01T02:49:20.627Z,3.80
2022-08-01T02:51:49.569Z,3.50
2022-08-01T02:54:19.665Z,3.47
2022-08-01T02:56:49.835Z,3.40
2022-08-01T02:59:22.247Z,3.67
2022-08-01T03:01:51.265Z,3.57
2022-08-01T03:04:20.849Z,3.97
2022-08-01T03:06:49.188Z,3.70
2022-08-01T03:09:17.477Z,3.80
2022-08-01T03:11:46.539Z,3.80
2022-08-01T03:14:15.312Z,3.90
2022-08-01T03:16:45.816Z,4.03
2022-08-01T03:19:14.503Z,4.20
2022-08-01T03:21:44.234Z,4.70
2022-08-01T03:24:12.594Z,4.07
2022-08-01T03:26:40.615Z,3.77
2022-08-01T03:29:11.715Z,3.70
2022-08-01T03:31:43.759Z,3.70
2022-08-01T03:34:10.939Z,4.07
2022-08-01T03:36:51.095Z,4.10
2022-08-01T03:39:20.498Z,4.70
2022-08-01T03:42:02.384Z,3.73
2022-08-01T03:44:34.284Z,4.30
2022-08-01T03:47:04.731Z,4.10
2022-08-01T03:49:34.676Z,4.00
2022-08-01T03:52:08.243Z,3.90
2022-08-01T03:54:39.529Z,4.00
2022-08-01T03:57:07.257Z,4.07
2022-08-01T03:59:37.557Z,4.47
2022-08-01T04:02:05.482Z,3.80
2022-08-01T04:04:33.560Z,3.70
2022-08-01T04:07:05.199Z,3.90
2022-08-01T04:09:32.807Z,4.33
2022-08-01T04:12:01.317Z,4.60
2022-08-01T04:14:37.156Z,4.07
2022-08-01T04:17:04.509Z,4.13
2022-08-01T04:19:31.474Z,3.90
2022-08-01T04:21:58.954Z,3.90
2022-08-01T04:24:28.722Z,3.40
2022-08-01T04:26:55.976Z,4.07
2022-08-01T04:29:25.053Z,4.13
2022-08-01T04:31:55.520Z,3.80
2022-08-01T04:34:25.484Z,3.40
2022-08-01T04:36:55.507Z,3.67
2022-08-01T04:39:28.567Z,3.60
2022-08-01T04:41:59.149Z,3.80
2022-08-01T04:44:32.326Z,3.83
2022-08-01T04:47:04.422Z,3.90
2022-08-01T04:49:49.145Z,3.67
2022-08-01T04:52:23.028Z,3.83
2022-08-01T04:54:51.817Z,3.67
2022-08-01T04:57:18.882Z,3.37
2022-08-01T04:59:47.296Z,3.33
2022-08-01T05:02:19.211Z,3.83
2022-08-01T05:04:47.156Z,3.50
2022-08-01T05:07:16.754Z,3.30
2022-08-01T05:09:44.011Z,3.70
2022-08-01T05:12:11.997Z,3.50
2022-08-01T05:14:39.170Z,3.27
2022-08-01T05:17:07.995Z,3.50
2022-08-01T05:19:36.205Z,3.53
2022-08-01T05:22:08.107Z,3.27
2022-08-01T05:24:38.338Z,3.27
2022-08-01T05:27:08.962Z,3.43
2022-08-01T05:29:44.272Z,2.90
2022-08-01T05:32:12.250Z,3.27
2022-08-01T05:34:39.227Z,3.67
2022-08-01T05:37:06.315Z,3.33
2022-08-01T05:39:33.335Z,3.13
2022-08-01T05:42:00.324Z,3.70
2022-08-01T05:44:27.498Z,3.30
2022-08-01T05:46:55.205Z,2.83
2022-08-01T05:49:22.287Z,3.53
2022-08-01T05:51:49.418Z,3.40
2022-08-01T05:54:16.460Z,3.50
2022-08-01T05:56:43.589Z,3.60
2022-08-01T05:59:10.641Z,3.80
2022-08-01T06:01:37.747Z,3.60
2022-08-01T06:04:05.156Z,3.93
2022-08-01T06:06:32.224Z,3.60
2022-08-01T06:08:59.367Z,3.20
2022-08-01T06:11:26.362Z,3.37
2022-08-01T06:13:54.737Z,3.50
2022-08-01T06:16:21.736Z,3.23
2022-08-01T06:18:48.745Z,2.73
2022-08-01T06:21:16.067Z,3.37
2022-08-01T06:23:43.362Z,3.13
2022-08-01T06:26:11.274Z,3.53
2022-08-01T06:28:39.496Z,3.13
2022-08-01T06:31:06.791Z,3.17
2022-08-01T06:33:33.869Z,3.37
2022-08-01T06:36:01.495Z,3.20
2022-08-01T06:38:28.473Z,2.83
2022-08-01T06:40:55.480Z,3.47
2022-08-01T06:43:22.563Z,3.30
2022-08-01T06:45:49.828Z,2.77
2022-08-01T06:48:17.075Z,3.10
2022-08-01T06:50:44.265Z,3.10
2022-08-01T06:53:11.473Z,2.70
2022-08-01T06:55:38.580Z,3.27
2022-08-01T06:58:05.733Z,2.70
2022-08-01T07:00:32.964Z,3.07
2022-08-01T07:03:00.877Z,2.70
2022-08-01T07:05:28.405Z,3.27
2022-08-01T07:07:55.685Z,3.27
2022-08-01T07:10:22.791Z,2.70
2022-08-01T07:12:49.873Z,2.80
2022-08-01T07:15:16.991Z,3.17
2022-08-01T07:17:44.326Z,2.83
2022-08-01T07:20:13.755Z,2.90
2022-08-01T07:22:43.495Z,2.87
2022-08-01T07:25:11.008Z,2.90
2022-08-01T07:27:38.265Z,2.67
2022-08-01T07:30:06.794Z,3.10
2022-08-01T07:32:35.843Z,3.30
2022-08-01T07:35:04.813Z,3.30
2022-08-01T07:37:45.505Z,3.13
2022-08-01T07:40:17.744Z,2.87
2022-08-01T07:42:46.013Z,2.67
2022-08-01T07:45:13.839Z,2.57
2022-08-01T07:47:45.676Z,2.80
2022-08-01T07:50:13.851Z,2.93
2022-08-01T07:52:40.934Z,2.80
2022-08-01T07:55:09.391Z,2.83
2022-08-01T07:57:36.486Z,2.80
2022-08-01T08:00:05.869Z,2.93
2022-08-01T08:02:33.600Z,2.93
2022-08-01T08:05:00.549Z,3.13
2022-08-01T08:07:27.553Z,2.80
2022-08-01T08:09:54.640Z,3.33
2022-08-01T08:12:28.797Z,2.73
2022-08-01T08:14:59.392Z,2.70
2022-08-01T08:17:27.104Z,3.07
2022-08-01T08:19:54.809Z,2.63
2022-08-01T08:22:21.917Z,3.17
2022-08-01T08:24:48.882Z,3.00
2022-08-01T08:27:16.367Z,2.83
2022-08-01T08:29:43.509Z,2.70
2022-08-01T08:32:11.071Z,2.60
2022-08-01T08:34:38.404Z,3.10
2022-08-01T08:37:05.546Z,2.93
2022-08-01T08:39:42.032Z,2.70
2022-08-01T08:42:10.984Z,2.27
2022-08-01T08:44:39.851Z,2.50
2022-08-01T08:47:17.329Z,2.50
2022-08-01T08:49:49.469Z,2.50
2022-08-01T08:52:21.392Z,2.40
2022-08-01T08:54:50.893Z,2.37
2022-08-01T08:57:21.105Z,2.30
2022-08-01T08:59:49.083Z,2.23
2022-08-01T09:02:16.048Z,2.80
2022-08-01T09:04:43.292Z,2.30
2022-08-01T09:07:12.134Z,2.60
2022-08-01T09:09:41.851Z,2.70
2022-08-01T09:12:10.033Z,2.00
2022-08-01T09:14:45.520Z,2.83
2022-08-01T09:17:13.865Z,2.60
2022-08-01T09:19:49.169Z,2.40
2022-08-01T09:22:19.270Z,2.03
2022-08-01T09:25:05.679Z,2.50
2022-08-01T09:27:33.557Z,2.20
2022-08-01T09:30:17.087Z,2.57
2022-08-01T09:32:55.575Z,2.27
2022-08-01T09:35:30.034Z,2.50
2022-08-01T09:38:34.501Z,2.47
2022-08-01T09:41:02.760Z,2.33
2022-08-01T09:43:31.286Z,2.53
2022-08-01T09:45:59.686Z,2.60
2022-08-01T09:48:29.700Z,2.20
2022-08-01T09:51:04.348Z,2.50
2022-08-01T09:53:51.899Z,2.20
2022-08-01T09:56:21.889Z,2.23
2022-08-01T09:59:01.584Z,2.00
2022-08-01T10:01:36.230Z,2.13
2022-08-01T10:04:12.518Z,2.57
2022-08-01T10:06:44.987Z,2.10
2022-08-01T10:09:14.259Z,2.20
2022-08-01T10:11:42.906Z,1.97
2022-08-01T10:14:18.102Z,2.00
2022-08-01T10:16:53.895Z,2.10
2022-08-01T10:19:28.868Z,2.57
2022-08-01T10:21:59.299Z,1.93
2022-08-01T10:24:29.398Z,2.00
2022-08-01T10:27:00.902Z,2.47
2022-08-01T10:29:46.176Z,2.20
2022-08-01T10:32:25.327Z,1.90
2022-08-01T10:34:57.826Z,1.80
2022-08-01T10:37:26.921Z,1.87
2022-08-01T10:40:14.119Z,1.93
2022-08-01T10:42:43.939Z,2.10
2022-08-01T10:45:13.292Z,1.90
2022-08-01T10:48:04.549Z,2.33
2022-08-01T10:50:48.535Z,1.80
2022-08-01T10:53:23.207Z,2.10
2022-08-01T10:56:03.381Z,1.80
2022-08-01T10:58:42.483Z,1.87
2022-08-01T11:01:26.693Z,1.70
2022-08-01T11:04:17.084Z,2.10
2022-08-01T11:07:06.659Z,1.80
2022-08-01T11:09:51.528Z,1.67
2022-08-01T11:12:23.168Z,1.67
2022-08-01T11:15:29.818Z,1.77
2022-08-01T11:17:58.396Z,1.70
2022-08-01T11:20:42.378Z,1.60
2022-08-01T11:23:19.013Z,1.97
2022-08-01T11:26:10.690Z,1.90
2022-08-01T11:28:41.242Z,1.77
2022-08-01T11:31:29.140Z,1.60
2022-08-01T11:33:59.303Z,1.60
2022-08-01T11:36:56.684Z,1.60
2022-08-01T11:39:18.625Z,1.63
2022-08-01T11:41:47.527Z,1.30
2022-08-01T11:44:16.748Z,1.77
2022-08-01T11:47:08.865Z,1.50
2022-08-01T11:49:57.108Z,1.47
2022-08-01T11:52:34.486Z,1.50
2022-08-01T11:55:11.514Z,1.60
2022-08-01T11:57:39.722Z,1.40
2022-08-01T12:00:15.414Z,1.40
2022-08-01T12:02:45.341Z,1.47
2022-08-01T12:05:24.623Z,1.30
2022-08-01T12:07:54.787Z,1.37
2022-08-01T12:10:23.912Z,0.97
2022-08-01T12:13:01.789Z,1.10
2022-08-01T12:15:37.167Z,1.07
2022-08-01T12:18:06.435Z,1.40
2022-08-01T12:20:35.701Z,1.03
2022-08-01T12:23:08.737Z,1.03
2022-08-01T12:25:36.638Z,1.20
2022-08-01T12:28:06.484Z,1.17
2022-08-01T12:30:38.096Z,1.03
2022-08-01T12:33:07.624Z,0.97
2022-08-01T12:35:35.858Z,1.20
2022-08-01T12:38:21.032Z,0.83
2022-08-01T12:40:53.153Z,0.90
2022-08-01T12:43:28.064Z,0.80
2022-08-01T12:45:58.833Z,0.83
2022-08-01T12:48:26.658Z,0.50
2022-08-01T12:50:54.648Z,0.70
2022-08-01T12:53:22.402Z,0.80
2022-08-01T12:55:58.648Z,0.70
2022-08-01T12:58:33.551Z,0.65
2022-08-01T13:01:06.771Z,0.70
2022-08-01T13:03:34.180Z,0.85
2022-08-01T13:06:01.823Z,0.80
2022-08-01T13:08:33.977Z,0.70
2022-08-01T13:11:06.318Z,0.70
2022-08-01T13:13:50.560Z,0.80
2022-08-01T13:16:30.180Z,0.80
2022-08-01T13:19:06.930Z,0.70
2022-08-01T13:21:52.479Z,1.17
2022-08-01T13:24:30.900Z,0.93
2022-08-01T13:27:01.470Z,1.00
2022-08-01T13:29:44.023Z,0.90
2022-08-01T13:32:28.518Z,2.57
2022-08-01T13:35:06.041Z,1.13
2022-08-01T13:37:33.433Z,0.80
2022-08-01T13:40:00.555Z,0.88
2022-08-01T13:42:30.242Z,1.00
2022-08-01T13:44:57.290Z,1.00
2022-08-01T13:47:31.157Z,1.10
2022-08-01T13:50:03.416Z,1.25
2022-08-01T13:52:32.374Z,1.27
2022-08-01T13:55:00.437Z,0.95
2022-08-01T13:57:36.747Z,1.30
2022-08-01T14:00:08.638Z,1.30
2022-08-01T14:02:41.936Z,1.58
2022-08-01T14:05:09.600Z,1.27
2022-08-01T14:07:38.223Z,1.13
2022-08-01T14:10:20.002Z,1.03
2022-08-01T14:12:48.888Z,1.17
2022-08-01T14:15:36.769Z,1.13
2022-08-01T14:18:03.882Z,1.13
2022-08-01T14:20:33.461Z,1.00
2022-08-01T14:23:00.547Z,1.17
2022-08-01T14:26:00.676Z,1.30
2022-08-01T14:28:15.069Z,1.03
2022-08-01T14:30:43.655Z,1.40
2022-08-01T14:33:14.911Z,1.30
2022-08-01T14:36:05.175Z,1.20
2022-08-01T14:38:31.636Z,1.10
2022-08-01T14:41:01.698Z,1.23
2022-08-01T14:43:33.120Z,1.03
2022-08-01T14:46:01.105Z,1.03
2022-08-01T14:48:28.544Z,1.08
2022-08-01T14:50:58.319Z,1.27
2022-08-01T14:53:25.527Z,1.20
2022-08-01T14:55:52.802Z,1.10
2022-08-01T14:58:20.199Z,1.60
2022-08-01T15:00:47.421Z,1.30
2022-08-01T15:03:14.599Z,1.40
2022-08-01T15:05:41.586Z,1.40
2022-08-01T15:08:08.709Z,1.30
2022-08-01T15:10:35.945Z,1.20
2022-08-01T15:13:03.340Z,1.50
2022-08-01T15:15:30.633Z,1.33
2022-08-01T15:17:57.795Z,1.37
2022-08-01T15:20:26.349Z,1.23
2022-08-01T15:22:53.843Z,1.30
2022-08-01T15:25:21.573Z,1.57
2022-08-01T15:27:48.680Z,1.47
2022-08-01T15:30:15.708Z,1.50
2022-08-01T15:32:42.904Z,1.48
2022-08-01T15:35:11.253Z,1.57
2022-08-01T15:37:42.905Z,1.40
2022-08-01T15:40:12.499Z,1.10
2022-08-01T15:42:39.867Z,1.20
2022-08-01T15:45:10.544Z,1.20
2022-08-01T15:47:40.402Z,1.30
2022-08-01T15:50:08.121Z,1.30
2022-08-01T15:52:35.230Z,1.37
2022-08-01T15:55:02.750Z,1.60
2022-08-01T15:57:29.896Z,1.30
2022-08-01T15:59:57.892Z,1.40
2022-08-01T16:02:25.029Z,1.17
2022-08-01T16:04:52.066Z,1.40
2022-08-01T16:07:19.067Z,1.37
2022-08-01T16:09:46.191Z,1.37
2022-08-01T16:12:13.711Z,1.67
2022-08-01T16:14:40.736Z,1.30
2022-08-01T16:17:07.756Z,1.40
2022-08-01T16:19:34.785Z,1.50
2022-08-01T16:22:01.909Z,1.20
2022-08-01T16:24:31.052Z,1.40
2022-08-01T16:26:58.423Z,1.93
2022-08-01T16:29:25.771Z,1.50
2022-08-01T16:31:56.941Z,1.60
2022-08-01T16:34:35.513Z,1.60
2022-08-01T16:37:03.556Z,1.50
2022-08-01T16:39:35.178Z,1.50
2022-08-01T16:42:02.272Z,1.50
2022-08-01T16:44:34.291Z,1.40
2022-08-01T16:47:03.760Z,1.60
2022-08-01T16:49:32.178Z,1.60
2022-08-01T16:51:59.487Z,1.53
2022-08-01T16:54:26.786Z,1.40
2022-08-01T16:56:56.091Z,1.37
2022-08-01T16:59:25.068Z,1.50
2022-08-01T17:01:58.816Z,1.30
2022-08-01T17:04:30.191Z,1.40
2022-08-01T17:06:57.881Z,1.53
2022-08-01T17:09:24.999Z,2.50
2022-08-01T17:11:52.562Z,1.50
2022-08-01T17:14:19.584Z,7.53
2022-08-01T17:16:46.653Z,1.60
2022-08-01T17:19:16.250Z,3.60
2022-08-01T17:21:43.351Z,1.40
2022-08-01T17:24:12.350Z,1.80
2022-08-01T17:26:43.799Z,1.47
2022-08-01T17:29:10.831Z,1.30
2022-08-01T17:31:37.894Z,1.40
2022-08-01T17:34:04.994Z,1.40
2022-08-01T17:36:32.155Z,1.50
2022-08-01T17:38:59.754Z,1.20
2022-08-01T17:41:26.847Z,1.40
2022-08-01T17:43:53.929Z,1.57
2022-08-01T17:46:20.941Z,1.50
2022-08-01T17:48:48.302Z,1.47
2022-08-01T17:51:20.699Z,1.40
2022-08-01T17:53:55.677Z,1.13
2022-08-01T17:56:25.535Z,1.43
2022-08-01T17:58:52.653Z,1.30
2022-08-01T18:01:20.120Z,1.63
2022-08-01T18:03:47.842Z,1.27
2022-08-01T18:06:19.357Z,1.70
2022-08-01T18:08:47.762Z,1.70
2022-08-01T18:11:16.622Z,1.70
2022-08-01T18:13:44.221Z,1.80
2022-08-01T18:16:13.377Z,1.20
2022-08-01T18:18:42.077Z,1.87
2022-08-01T18:21:10.406Z,1.50
2022-08-01T18:23:37.475Z,1.63
2022-08-01T18:26:07.452Z,1.33
2022-08-01T18:28:46.666Z,1.97
2022-08-01T18:31:17.280Z,1.60
2022-08-01T18:33:44.921Z,1.50
2022-08-01T18:36:31.444Z,1.80
2022-08-01T18:39:00.281Z,1.60
2022-08-01T18:41:29.000Z,1.60
2022-08-01T18:44:05.486Z,1.50
2022-08-01T18:46:37.581Z,1.63
2022-08-01T18:49:06.083Z,1.73
2022-08-01T18:51:33.377Z,2.03
2022-08-01T18:54:00.613Z,1.53
2022-08-01T18:56:27.695Z,1.80
2022-08-01T18:58:55.399Z,2.10
2022-08-01T19:01:22.989Z,1.77
2022-08-01T19:03:50.033Z,1.80
2022-08-01T19:06:17.218Z,1.60
2022-08-01T19:08:46.027Z,1.50
2022-08-01T19:11:13.283Z,1.90
2022-08-01T19:13:40.392Z,2.00
2022-08-01T19:16:07.434Z,1.90
2022-08-01T19:18:35.019Z,2.00
2022-08-01T19:21:06.985Z,1.90
2022-08-01T19:23:53.902Z,1.60
2022-08-01T19:26:28.251Z,1.80
2022-08-01T19:29:01.494Z,1.90
2022-08-01T19:31:29.933Z,2.00
2022-08-01T19:33:57.827Z,2.10
2022-08-01T19:36:25.004Z,1.83
2022-08-01T19:38:52.011Z,2.00
2022-08-01T19:41:19.582Z,2.00
2022-08-01T19:43:48.021Z,1.80
2022-08-01T19:46:17.460Z,1.97
2022-08-01T19:48:49.918Z,1.67
2022-08-01T19:51:21.133Z,2.10
2022-08-01T19:53:55.449Z,2.00
2022-08-01T19:56:25.831Z,2.23
2022-08-01T19:58:59.906Z,2.70
2022-08-01T20:01:27.789Z,2.20
2022-08-01T20:03:56.040Z,2.70
2022-08-01T20:06:24.463Z,2.50
2022-08-01T20:08:54.711Z,2.47
2022-08-01T20:11:23.456Z,2.53
2022-08-01T20:13:51.804Z,2.70
2022-08-01T20:16:19.512Z,2.63
2022-08-01T20:18:46.590Z,3.17
2022-08-01T20:21:14.565Z,3.33
2022-08-01T20:23:43.796Z,2.83
2022-08-01T20:26:12.594Z,2.30
2022-08-01T20:28:43.912Z,2.47
2022-08-01T20:31:11.343Z,2.93
2022-08-01T20:33:44.003Z,2.40
2022-08-01T20:36:25.675Z,2.47
2022-08-01T20:38:57.565Z,2.63
2022-08-01T20:41:26.596Z,3.00
2022-08-01T20:43:55.372Z,2.80
2022-08-01T20:46:27.318Z,2.57
2022-08-01T20:48:57.444Z,2.67
2022-08-01T20:51:29.347Z,3.53
2022-08-01T20:53:58.216Z,3.00
2022-08-01T20:56:57.053Z,3.23
2022-08-01T20:59:55.877Z,2.80
2022-08-01T21:03:04.837Z,3.07
2022-08-01T21:05:34.881Z,3.20
2022-08-01T21:08:16.318Z,3.03
2022-08-01T21:10:46.867Z,3.30
2022-08-01T21:13:22.364Z,3.20
2022-08-01T21:16:22.326Z,3.40
2022-08-01T21:19:19.782Z,2.90
2022-08-01T21:22:10.879Z,3.00
2022-08-01T21:24:58.046Z,3.43
2022-08-01T21:27:33.233Z,3.97
2022-08-01T21:30:04.695Z,3.23
2022-08-01T21:32:33.872Z,3.60
2022-08-01T21:35:02.285Z,3.60
2022-08-01T21:37:31.120Z,3.67
2022-08-01T21:39:59.560Z,3.43
2022-08-01T21:42:29.689Z,3.10
2022-08-01T21:45:01.969Z,3.10
2022-08-01T21:47:30.171Z,3.20
2022-08-01T21:50:02.503Z,3.27
2022-08-01T21:52:47.361Z,3.47
2022-08-01T21:55:35.652Z,3.00
2022-08-01T21:58:35.621Z,3.80
2022-08-01T22:01:21.964Z,3.30
2022-08-01T22:03:53.647Z,3.30
2022-08-01T22:06:23.626Z,3.70
2022-08-01T22:08:56.533Z,3.50
2022-08-01T22:11:29.672Z,3.40
2022-08-01T22:14:03.021Z,3.90
2022-08-01T22:16:32.272Z,4.00
2022-08-01T22:19:02.557Z,3.53
2022-08-01T22:21:30.537Z,3.50
2022-08-01T22:23:59.225Z,3.63
2022-08-01T22:26:29.515Z,3.70
2022-08-01T22:28:56.834Z,3.23
2022-08-01T22:31:24.283Z,3.40
2022-08-01T22:33:51.996Z,3.10
2022-08-01T22:36:20.611Z,3.37
2022-08-01T22:38:47.795Z,2.80
2022-08-01T22:41:17.459Z,3.27
2022-08-01T22:44:14.369Z,3.00
2022-08-01T22:47:23.377Z,3.47
2022-08-01T22:50:05.682Z,3.53
2022-08-01T22:52:40.965Z,3.27
2022-08-01T22:55:10.460Z,3.13
2022-08-01T22:58:11.622Z,3.10
2022-08-01T23:00:42.480Z,3.17
2022-08-01T23:03:29.497Z,3.30
2022-08-01T23:06:04.510Z,3.40
2022-08-01T23:08:34.832Z,3.00
2022-08-01T23:11:03.954Z,2.67
2022-08-01T23:13:31.769Z,2.60
2022-08-01T23:16:00.024Z,2.60
2022-08-01T23:18:28.095Z,2.77
2022-08-01T23:21:00.447Z,2.60
2022-08-01T23:23:30.822Z,2.67
2022-08-01T23:25:59.084Z,2.93
2022-08-01T23:28:28.518Z,2.77
2022-08-01T23:30:55.903Z,2.57
2022-08-01T23:33:22.950Z,2.80
2022-08-01T23:35:50.252Z,2.90
2022-08-01T23:38:18.423Z,3.57
2022-08-01T23:40:45.561Z,2.80
2022-08-01T23:43:17.090Z,3.07
2022-08-01T23:46:03.265Z,3.20
2022-08-01T23:48:33.264Z,3.40
2022-08-01T23:51:00.525Z,3.00
2022-08-01T23:53:30.405Z,3.07
2022-08-01T23:55:58.996Z,2.73
2022-08-01T23:58:28.126Z,3.10
